sensor_id;sensor_type;location;lat;lon;timestamp;P1;durP1;ratioP1;P2;durP2;ratioP2
78648;SDS011;67962;47.310;9.642;2023-11-21T00:02:13;9.88;;;3.35;;
78648;SDS011;67962;47.310;9.642;2023-11-21T00:04:39;13.80;;;3.55;;
78648;SDS011;67962;47.310;9.642;2023-11-21T00:07:04;6.90;;;2.80;;
78648;SDS011;67962;47.310;9.642;2023-11-21T00:09:31;6.43;;;2.40;;
78648;SDS011;67962;47.310;9.642;2023-11-21T00:11:57;12.00;;;2.63;;
78648;SDS011;67962;47.310;9.642;2023-11-21T00:14:24;11.35;;;2.25;;
78648;SDS011;67962;47.310;9.642;2023-11-21T00:16:50;5.72;;;2.40;;
78648;SDS011;67962;47.310;9.642;2023-11-21T00:19:16;8.98;;;2.72;;
78648;SDS011;67962;47.310;9.642;2023-11-21T00:21:42;7.55;;;2.42;;
78648;SDS011;67962;47.310;9.642;2023-11-21T00:24:10;11.57;;;2.53;;
78648;SDS011;67962;47.310;9.642;2023-11-21T00:26:38;6.70;;;2.20;;
78648;SDS011;67962;47.310;9.642;2023-11-21T00:29:04;7.43;;;2.70;;
78648;SDS011;67962;47.310;9.642;2023-11-21T00:31:34;8.70;;;2.40;;
78648;SDS011;67962;47.310;9.642;2023-11-21T00:34:02;7.07;;;2.60;;
78648;SDS011;67962;47.310;9.642;2023-11-21T00:36:30;7.72;;;2.95;;
78648;SDS011;67962;47.310;9.642;2023-11-21T00:38:56;9.85;;;2.53;;
78648;SDS011;67962;47.310;9.642;2023-11-21T00:41:22;8.07;;;2.35;;
78648;SDS011;67962;47.310;9.642;2023-11-21T00:43:48;6.10;;;2.40;;
78648;SDS011;67962;47.310;9.642;2023-11-21T00:46:14;6.22;;;2.40;;
78648;SDS011;67962;47.310;9.642;2023-11-21T00:48:39;7.60;;;2.30;;
78648;SDS011;67962;47.310;9.642;2023-11-21T00:51:05;6.50;;;2.63;;
78648;SDS011;67962;47.310;9.642;2023-11-21T00:53:31;11.65;;;2.75;;
78648;SDS011;67962;47.310;9.642;2023-11-21T00:55:57;7.28;;;3.30;;
78648;SDS011;67962;47.310;9.642;2023-11-21T00:58:23;11.35;;;2.95;;
78648;SDS011;67962;47.310;9.642;2023-11-21T01:00:49;10.02;;;3.25;;
78648;SDS011;67962;47.310;9.642;2023-11-21T01:03:15;6.70;;;2.70;;
78648;SDS011;67962;47.310;9.642;2023-11-21T01:05:41;10.27;;;2.78;;
78648;SDS011;67962;47.310;9.642;2023-11-21T01:08:06;7.43;;;2.65;;
78648;SDS011;67962;47.310;9.642;2023-11-21T01:10:32;6.80;;;2.80;;
78648;SDS011;67962;47.310;9.642;2023-11-21T01:12:59;7.53;;;3.00;;
78648;SDS011;67962;47.310;9.642;2023-11-21T01:15:25;5.43;;;2.55;;
78648;SDS011;67962;47.310;9.642;2023-11-21T01:17:53;7.72;;;2.75;;
78648;SDS011;67962;47.310;9.642;2023-11-21T01:20:19;5.70;;;2.72;;
78648;SDS011;67962;47.310;9.642;2023-11-21T01:22:45;14.07;;;2.63;;
78648;SDS011;67962;47.310;9.642;2023-11-21T01:25:13;5.85;;;2.67;;
78648;SDS011;67962;47.310;9.642;2023-11-21T01:27:39;8.27;;;2.60;;
78648;SDS011;67962;47.310;9.642;2023-11-21T01:30:05;9.90;;;3.13;;
78648;SDS011;67962;47.310;9.642;2023-11-21T01:32:32;5.93;;;2.50;;
78648;SDS011;67962;47.310;9.642;2023-11-21T01:34:59;6.60;;;2.53;;
78648;SDS011;67962;47.310;9.642;2023-11-21T01:37:24;15.05;;;2.90;;
78648;SDS011;67962;47.310;9.642;2023-11-21T01:39:52;9.65;;;2.53;;
78648;SDS011;67962;47.310;9.642;2023-11-21T01:42:21;6.38;;;2.58;;
78648;SDS011;67962;47.310;9.642;2023-11-21T01:44:47;10.30;;;2.88;;
78648;SDS011;67962;47.310;9.642;2023-11-21T01:47:13;10.75;;;2.50;;
78648;SDS011;67962;47.310;9.642;2023-11-21T01:49:40;6.85;;;2.17;;
78648;SDS011;67962;47.310;9.642;2023-11-21T01:52:10;5.75;;;2.13;;
78648;SDS011;67962;47.310;9.642;2023-11-21T01:54:36;5.75;;;2.00;;
78648;SDS011;67962;47.310;9.642;2023-11-21T01:57:03;7.55;;;2.35;;
78648;SDS011;67962;47.310;9.642;2023-11-21T01:59:33;7.47;;;2.00;;
78648;SDS011;67962;47.310;9.642;2023-11-21T02:02:01;10.57;;;1.90;;
78648;SDS011;67962;47.310;9.642;2023-11-21T02:04:34;6.38;;;2.20;;
78648;SDS011;67962;47.310;9.642;2023-11-21T02:07:04;7.13;;;2.20;;
78648;SDS011;67962;47.310;9.642;2023-11-21T02:09:33;5.38;;;1.80;;
78648;SDS011;67962;47.310;9.642;2023-11-21T02:11:59;4.72;;;1.67;;
78648;SDS011;67962;47.310;9.642;2023-11-21T02:14:26;10.00;;;2.03;;
78648;SDS011;67962;47.310;9.642;2023-11-21T02:16:54;5.78;;;2.00;;
78648;SDS011;67962;47.310;9.642;2023-11-21T02:19:22;10.60;;;2.17;;
78648;SDS011;67962;47.310;9.642;2023-11-21T02:21:50;11.55;;;2.30;;
78648;SDS011;67962;47.310;9.642;2023-11-21T02:24:20;7.65;;;1.90;;
78648;SDS011;67962;47.310;9.642;2023-11-21T02:26:46;8.48;;;2.40;;
78648;SDS011;67962;47.310;9.642;2023-11-21T02:29:18;5.13;;;1.88;;
78648;SDS011;67962;47.310;9.642;2023-11-21T02:31:47;9.43;;;2.47;;
78648;SDS011;67962;47.310;9.642;2023-11-21T02:34:17;8.00;;;2.38;;
78648;SDS011;67962;47.310;9.642;2023-11-21T02:36:46;5.93;;;2.33;;
78648;SDS011;67962;47.310;9.642;2023-11-21T02:39:16;5.15;;;2.08;;
78648;SDS011;67962;47.310;9.642;2023-11-21T02:41:43;7.35;;;2.60;;
78648;SDS011;67962;47.310;9.642;2023-11-21T02:44:09;7.85;;;2.60;;
78648;SDS011;67962;47.310;9.642;2023-11-21T02:46:35;4.63;;;2.10;;
78648;SDS011;67962;47.310;9.642;2023-11-21T02:49:02;6.72;;;1.95;;
78648;SDS011;67962;47.310;9.642;2023-11-21T02:51:29;4.72;;;2.35;;
78648;SDS011;67962;47.310;9.642;2023-11-21T02:53:55;5.55;;;1.95;;
78648;SDS011;67962;47.310;9.642;2023-11-21T02:56:25;3.92;;;1.85;;
78648;SDS011;67962;47.310;9.642;2023-11-21T02:58:51;6.45;;;2.05;;
78648;SDS011;67962;47.310;9.642;2023-11-21T03:01:17;7.32;;;2.13;;
78648;SDS011;67962;47.310;9.642;2023-11-21T03:03:43;5.85;;;1.88;;
78648;SDS011;67962;47.310;9.642;2023-11-21T03:06:09;7.93;;;1.85;;
78648;SDS011;67962;47.310;9.642;2023-11-21T03:08:35;9.90;;;2.55;;
78648;SDS011;67962;47.310;9.642;2023-11-21T03:11:01;6.28;;;2.03;;
78648;SDS011;67962;47.310;9.642;2023-11-21T03:13:28;7.00;;;1.77;;
78648;SDS011;67962;47.310;9.642;2023-11-21T03:15:54;5.70;;;2.00;;
78648;SDS011;67962;47.310;9.642;2023-11-21T03:18:20;5.47;;;1.88;;
78648;SDS011;67962;47.310;9.642;2023-11-21T03:20:52;7.30;;;2.38;;
78648;SDS011;67962;47.310;9.642;2023-11-21T03:23:18;5.20;;;2.13;;
78648;SDS011;67962;47.310;9.642;2023-11-21T03:25:44;11.23;;;2.65;;
78648;SDS011;67962;47.310;9.642;2023-11-21T03:28:10;7.22;;;2.42;;
78648;SDS011;67962;47.310;9.642;2023-11-21T03:30:36;6.88;;;2.60;;
78648;SDS011;67962;47.310;9.642;2023-11-21T03:33:01;6.50;;;2.70;;
78648;SDS011;67962;47.310;9.642;2023-11-21T03:35:27;7.75;;;2.40;;
78648;SDS011;67962;47.310;9.642;2023-11-21T03:37:53;5.22;;;2.75;;
78648;SDS011;67962;47.310;9.642;2023-11-21T03:40:19;5.55;;;2.50;;
78648;SDS011;67962;47.310;9.642;2023-11-21T03:42:46;5.20;;;2.47;;
78648;SDS011;67962;47.310;9.642;2023-11-21T03:45:12;4.72;;;2.38;;
78648;SDS011;67962;47.310;9.642;2023-11-21T03:47:39;7.72;;;2.33;;
78648;SDS011;67962;47.310;9.642;2023-11-21T03:50:06;6.47;;;2.20;;
78648;SDS011;67962;47.310;9.642;2023-11-21T03:52:34;6.57;;;2.70;;
78648;SDS011;67962;47.310;9.642;2023-11-21T03:55:00;7.63;;;2.88;;
78648;SDS011;67962;47.310;9.642;2023-11-21T03:57:26;7.10;;;3.40;;
78648;SDS011;67962;47.310;9.642;2023-11-21T03:59:53;7.85;;;3.47;;
78648;SDS011;67962;47.310;9.642;2023-11-21T04:02:19;26.58;;;14.48;;
78648;SDS011;67962;47.310;9.642;2023-11-21T04:04:44;24.25;;;10.95;;
78648;SDS011;67962;47.310;9.642;2023-11-21T04:07:10;21.55;;;10.68;;
78648;SDS011;67962;47.310;9.642;2023-11-21T04:09:36;23.10;;;9.85;;
78648;SDS011;67962;47.310;9.642;2023-11-21T04:12:02;16.27;;;8.27;;
78648;SDS011;67962;47.310;9.642;2023-11-21T04:14:28;14.60;;;4.90;;
78648;SDS011;67962;47.310;9.642;2023-11-21T04:16:53;13.02;;;5.70;;
78648;SDS011;67962;47.310;9.642;2023-11-21T04:19:19;8.77;;;3.42;;
78648;SDS011;67962;47.310;9.642;2023-11-21T04:21:45;7.00;;;3.10;;
78648;SDS011;67962;47.310;9.642;2023-11-21T04:24:11;10.18;;;3.58;;
78648;SDS011;67962;47.310;9.642;2023-11-21T04:26:37;8.02;;;3.42;;
78648;SDS011;67962;47.310;9.642;2023-11-21T04:29:03;7.40;;;3.13;;
78648;SDS011;67962;47.310;9.642;2023-11-21T04:31:29;7.82;;;3.55;;
78648;SDS011;67962;47.310;9.642;2023-11-21T04:33:55;11.18;;;2.83;;
78648;SDS011;67962;47.310;9.642;2023-11-21T04:36:21;21.80;;;11.93;;
78648;SDS011;67962;47.310;9.642;2023-11-21T04:38:47;13.57;;;4.13;;
78648;SDS011;67962;47.310;9.642;2023-11-21T04:41:12;7.35;;;3.33;;
78648;SDS011;67962;47.310;9.642;2023-11-21T04:43:38;11.05;;;2.15;;
78648;SDS011;67962;47.310;9.642;2023-11-21T04:46:04;4.82;;;1.90;;
78648;SDS011;67962;47.310;9.642;2023-11-21T04:48:30;6.55;;;1.90;;
78648;SDS011;67962;47.310;9.642;2023-11-21T04:50:55;6.88;;;1.90;;
78648;SDS011;67962;47.310;9.642;2023-11-21T04:53:21;6.32;;;1.90;;
78648;SDS011;67962;47.310;9.642;2023-11-21T04:55:47;7.68;;;1.67;;
78648;SDS011;67962;47.310;9.642;2023-11-21T04:58:13;4.40;;;1.48;;
78648;SDS011;67962;47.310;9.642;2023-11-21T05:00:39;5.00;;;1.55;;
78648;SDS011;67962;47.310;9.642;2023-11-21T05:03:06;5.45;;;1.83;;
78648;SDS011;67962;47.310;9.642;2023-11-21T05:05:32;5.07;;;1.50;;
78648;SDS011;67962;47.310;9.642;2023-11-21T05:07:59;7.15;;;1.40;;
78648;SDS011;67962;47.310;9.642;2023-11-21T05:10:24;6.15;;;1.40;;
78648;SDS011;67962;47.310;9.642;2023-11-21T05:12:50;6.40;;;1.27;;
78648;SDS011;67962;47.310;9.642;2023-11-21T05:15:16;6.57;;;1.45;;
78648;SDS011;67962;47.310;9.642;2023-11-21T05:17:42;4.60;;;1.35;;
78648;SDS011;67962;47.310;9.642;2023-11-21T05:20:15;5.30;;;1.52;;
78648;SDS011;67962;47.310;9.642;2023-11-21T05:22:48;4.97;;;2.65;;
78648;SDS011;67962;47.310;9.642;2023-11-21T05:25:15;6.38;;;1.65;;
78648;SDS011;67962;47.310;9.642;2023-11-21T05:27:43;154.38;;;72.50;;
78648;SDS011;67962;47.310;9.642;2023-11-21T05:30:09;119.20;;;52.22;;
78648;SDS011;67962;47.310;9.642;2023-11-21T05:32:38;77.18;;;40.13;;
78648;SDS011;67962;47.310;9.642;2023-11-21T05:35:04;47.33;;;24.63;;
78648;SDS011;67962;47.310;9.642;2023-11-21T05:37:34;7.05;;;2.88;;
78648;SDS011;67962;47.310;9.642;2023-11-21T05:40:01;12.05;;;3.78;;
78648;SDS011;67962;47.310;9.642;2023-11-21T05:42:31;17.30;;;7.28;;
78648;SDS011;67962;47.310;9.642;2023-11-21T05:44:57;14.68;;;4.93;;
78648;SDS011;67962;47.310;9.642;2023-11-21T05:47:24;11.93;;;5.13;;
78648;SDS011;67962;47.310;9.642;2023-11-21T05:49:51;11.60;;;4.82;;
78648;SDS011;67962;47.310;9.642;2023-11-21T05:52:17;10.63;;;4.53;;
78648;SDS011;67962;47.310;9.642;2023-11-21T05:54:43;11.65;;;4.47;;
78648;SDS011;67962;47.310;9.642;2023-11-21T05:57:09;8.80;;;3.70;;
78648;SDS011;67962;47.310;9.642;2023-11-21T05:59:34;12.40;;;4.50;;
78648;SDS011;67962;47.310;9.642;2023-11-21T06:02:00;14.43;;;4.30;;
78648;SDS011;67962;47.310;9.642;2023-11-21T06:04:27;10.25;;;3.80;;
78648;SDS011;67962;47.310;9.642;2023-11-21T06:06:52;15.30;;;4.10;;
78648;SDS011;67962;47.310;9.642;2023-11-21T06:09:18;13.52;;;4.75;;
78648;SDS011;67962;47.310;9.642;2023-11-21T06:11:44;7.22;;;3.95;;
78648;SDS011;67962;47.310;9.642;2023-11-21T06:14:10;12.55;;;4.45;;
78648;SDS011;67962;47.310;9.642;2023-11-21T06:16:36;14.95;;;4.88;;
78648;SDS011;67962;47.310;9.642;2023-11-21T06:19:01;12.15;;;4.35;;
78648;SDS011;67962;47.310;9.642;2023-11-21T06:21:27;6.22;;;2.92;;
78648;SDS011;67962;47.310;9.642;2023-11-21T06:23:53;5.03;;;2.28;;
78648;SDS011;67962;47.310;9.642;2023-11-21T06:26:21;6.35;;;1.88;;
78648;SDS011;67962;47.310;9.642;2023-11-21T06:28:47;7.32;;;2.22;;
78648;SDS011;67962;47.310;9.642;2023-11-21T06:31:16;9.50;;;2.25;;
78648;SDS011;67962;47.310;9.642;2023-11-21T06:33:42;5.78;;;2.03;;
78648;SDS011;67962;47.310;9.642;2023-11-21T06:36:08;7.88;;;2.70;;
78648;SDS011;67962;47.310;9.642;2023-11-21T06:38:36;9.15;;;3.10;;
78648;SDS011;67962;47.310;9.642;2023-11-21T06:41:02;6.22;;;2.20;;
78648;SDS011;67962;47.310;9.642;2023-11-21T06:43:29;5.15;;;1.75;;
78648;SDS011;67962;47.310;9.642;2023-11-21T06:45:56;7.22;;;3.35;;
78648;SDS011;67962;47.310;9.642;2023-11-21T06:48:22;9.43;;;1.85;;
78648;SDS011;67962;47.310;9.642;2023-11-21T06:50:48;6.43;;;2.58;;
78648;SDS011;67962;47.310;9.642;2023-11-21T06:53:14;7.85;;;2.88;;
78648;SDS011;67962;47.310;9.642;2023-11-21T06:55:40;6.97;;;3.00;;
78648;SDS011;67962;47.310;9.642;2023-11-21T06:58:05;7.38;;;2.95;;
78648;SDS011;67962;47.310;9.642;2023-11-21T07:00:31;7.75;;;3.22;;
78648;SDS011;67962;47.310;9.642;2023-11-21T07:02:56;7.65;;;2.95;;
78648;SDS011;67962;47.310;9.642;2023-11-21T07:05:22;13.70;;;4.07;;
78648;SDS011;67962;47.310;9.642;2023-11-21T07:07:50;10.38;;;4.82;;
78648;SDS011;67962;47.310;9.642;2023-11-21T07:10:15;10.18;;;4.78;;
78648;SDS011;67962;47.310;9.642;2023-11-21T07:12:42;12.18;;;4.20;;
78648;SDS011;67962;47.310;9.642;2023-11-21T07:15:07;4.47;;;2.45;;
78648;SDS011;67962;47.310;9.642;2023-11-21T07:17:36;2.72;;;1.90;;
78648;SDS011;67962;47.310;9.642;2023-11-21T07:20:02;5.50;;;2.08;;
78648;SDS011;67962;47.310;9.642;2023-11-21T07:22:28;2.22;;;1.67;;
78648;SDS011;67962;47.310;9.642;2023-11-21T07:24:55;2.47;;;1.83;;
78648;SDS011;67962;47.310;9.642;2023-11-21T07:27:21;4.50;;;2.13;;
78648;SDS011;67962;47.310;9.642;2023-11-21T07:29:47;5.03;;;1.90;;
78648;SDS011;67962;47.310;9.642;2023-11-21T07:32:13;3.95;;;2.00;;
78648;SDS011;67962;47.310;9.642;2023-11-21T07:34:40;5.50;;;2.22;;
78648;SDS011;67962;47.310;9.642;2023-11-21T07:37:06;4.25;;;2.10;;
78648;SDS011;67962;47.310;9.642;2023-11-21T07:39:34;3.83;;;2.20;;
78648;SDS011;67962;47.310;9.642;2023-11-21T07:42:01;6.50;;;2.17;;
78648;SDS011;67962;47.310;9.642;2023-11-21T07:44:27;3.60;;;2.00;;
78648;SDS011;67962;47.310;9.642;2023-11-21T07:46:54;4.35;;;2.22;;
78648;SDS011;67962;47.310;9.642;2023-11-21T07:49:22;2.85;;;1.92;;
78648;SDS011;67962;47.310;9.642;2023-11-21T07:51:51;4.60;;;2.50;;
78648;SDS011;67962;47.310;9.642;2023-11-21T07:54:17;8.57;;;2.85;;
78648;SDS011;67962;47.310;9.642;2023-11-21T07:56:43;5.15;;;2.28;;
78648;SDS011;67962;47.310;9.642;2023-11-21T07:59:10;2.90;;;1.92;;
78648;SDS011;67962;47.310;9.642;2023-11-21T08:01:35;5.75;;;2.22;;
78648;SDS011;67962;47.310;9.642;2023-11-21T08:04:01;4.70;;;2.78;;
78648;SDS011;67962;47.310;9.642;2023-11-21T08:06:28;4.82;;;1.80;;
78648;SDS011;67962;47.310;9.642;2023-11-21T08:08:58;4.05;;;1.88;;
78648;SDS011;67962;47.310;9.642;2023-11-21T08:11:24;3.33;;;1.42;;
78648;SDS011;67962;47.310;9.642;2023-11-21T08:13:49;3.03;;;1.50;;
78648;SDS011;67962;47.310;9.642;2023-11-21T08:16:15;8.13;;;3.67;;
78648;SDS011;67962;47.310;9.642;2023-11-21T08:18:42;8.98;;;4.43;;
78648;SDS011;67962;47.310;9.642;2023-11-21T08:21:07;5.53;;;2.35;;
78648;SDS011;67962;47.310;9.642;2023-11-21T08:23:33;4.03;;;2.45;;
78648;SDS011;67962;47.310;9.642;2023-11-21T08:25:59;4.72;;;2.58;;
78648;SDS011;67962;47.310;9.642;2023-11-21T08:28:25;9.57;;;2.47;;
78648;SDS011;67962;47.310;9.642;2023-11-21T08:30:51;4.50;;;2.72;;
78648;SDS011;67962;47.310;9.642;2023-11-21T08:33:17;7.22;;;2.67;;
78648;SDS011;67962;47.310;9.642;2023-11-21T08:35:43;3.92;;;2.63;;
78648;SDS011;67962;47.310;9.642;2023-11-21T08:38:10;5.55;;;3.00;;
78648;SDS011;67962;47.310;9.642;2023-11-21T08:40:37;5.85;;;2.45;;
78648;SDS011;67962;47.310;9.642;2023-11-21T08:43:03;9.15;;;3.05;;
78648;SDS011;67962;47.310;9.642;2023-11-21T08:45:29;8.20;;;2.80;;
78648;SDS011;67962;47.310;9.642;2023-11-21T08:47:55;7.05;;;3.10;;
78648;SDS011;67962;47.310;9.642;2023-11-21T08:50:21;8.90;;;3.15;;
78648;SDS011;67962;47.310;9.642;2023-11-21T08:52:47;7.78;;;3.22;;
78648;SDS011;67962;47.310;9.642;2023-11-21T08:55:13;5.63;;;3.20;;
78648;SDS011;67962;47.310;9.642;2023-11-21T08:57:39;5.20;;;3.03;;
78648;SDS011;67962;47.310;9.642;2023-11-21T09:00:09;6.45;;;3.40;;
78648;SDS011;67962;47.310;9.642;2023-11-21T09:02:37;9.68;;;3.10;;
78648;SDS011;67962;47.310;9.642;2023-11-21T09:05:04;7.07;;;3.03;;
78648;SDS011;67962;47.310;9.642;2023-11-21T09:07:30;5.93;;;2.90;;
78648;SDS011;67962;47.310;9.642;2023-11-21T09:09:56;4.68;;;3.08;;
78648;SDS011;67962;47.310;9.642;2023-11-21T09:12:22;16.23;;;3.17;;
78648;SDS011;67962;47.310;9.642;2023-11-21T09:14:49;5.95;;;2.65;;
78648;SDS011;67962;47.310;9.642;2023-11-21T09:17:16;5.40;;;2.70;;
78648;SDS011;67962;47.310;9.642;2023-11-21T09:19:42;7.95;;;2.67;;
78648;SDS011;67962;47.310;9.642;2023-11-21T09:22:15;5.30;;;2.28;;
78648;SDS011;67962;47.310;9.642;2023-11-21T09:24:41;11.38;;;2.75;;
78648;SDS011;67962;47.310;9.642;2023-11-21T09:27:07;3.20;;;2.33;;
78648;SDS011;67962;47.310;9.642;2023-11-21T09:29:35;7.68;;;2.60;;
78648;SDS011;67962;47.310;9.642;2023-11-21T09:32:03;5.80;;;2.50;;
78648;SDS011;67962;47.310;9.642;2023-11-21T09:34:31;6.32;;;2.53;;
78648;SDS011;67962;47.310;9.642;2023-11-21T09:36:58;4.68;;;2.47;;
78648;SDS011;67962;47.310;9.642;2023-11-21T09:39:24;6.72;;;2.70;;
78648;SDS011;67962;47.310;9.642;2023-11-21T09:41:50;9.32;;;2.67;;
78648;SDS011;67962;47.310;9.642;2023-11-21T09:45:13;6.70;;;3.00;;
78648;SDS011;67962;47.310;9.642;2023-11-21T09:47:23;4.72;;;2.47;;
78648;SDS011;67962;47.310;9.642;2023-11-21T09:49:49;4.68;;;2.80;;
78648;SDS011;67962;47.310;9.642;2023-11-21T09:52:24;7.68;;;2.50;;
78648;SDS011;67962;47.310;9.642;2023-11-21T09:54:52;6.90;;;2.70;;
78648;SDS011;67962;47.310;9.642;2023-11-21T09:57:19;5.88;;;2.55;;
78648;SDS011;67962;47.310;9.642;2023-11-21T09:59:46;1.73;;;1.20;;
78648;SDS011;67962;47.310;9.642;2023-11-21T10:02:15;4.18;;;1.30;;
78648;SDS011;67962;47.310;9.642;2023-11-21T10:04:44;8.82;;;3.35;;
78648;SDS011;67962;47.310;9.642;2023-11-21T10:07:10;4.15;;;2.30;;
78648;SDS011;67962;47.310;9.642;2023-11-21T10:09:40;4.55;;;2.10;;
78648;SDS011;67962;47.310;9.642;2023-11-21T10:12:07;7.18;;;2.80;;
78648;SDS011;67962;47.310;9.642;2023-11-21T10:14:35;7.30;;;3.33;;
78648;SDS011;67962;47.310;9.642;2023-11-21T10:17:05;5.22;;;3.00;;
78648;SDS011;67962;47.310;9.642;2023-11-21T10:19:33;5.35;;;2.70;;
78648;SDS011;67962;47.310;9.642;2023-11-21T10:22:01;7.35;;;3.00;;
78648;SDS011;67962;47.310;9.642;2023-11-21T10:24:28;6.75;;;2.63;;
78648;SDS011;67962;47.310;9.642;2023-11-21T10:26:54;5.53;;;2.40;;
78648;SDS011;67962;47.310;9.642;2023-11-21T10:29:20;5.65;;;2.50;;
78648;SDS011;67962;47.310;9.642;2023-11-21T10:31:49;5.43;;;2.53;;
78648;SDS011;67962;47.310;9.642;2023-11-21T10:34:16;4.55;;;2.80;;
78648;SDS011;67962;47.310;9.642;2023-11-21T10:36:43;4.38;;;2.35;;
78648;SDS011;67962;47.310;9.642;2023-11-21T10:39:13;6.30;;;2.28;;
78648;SDS011;67962;47.310;9.642;2023-11-21T10:41:43;10.02;;;2.78;;
78648;SDS011;67962;47.310;9.642;2023-11-21T10:44:10;5.80;;;2.33;;
78648;SDS011;67962;47.310;9.642;2023-11-21T10:46:39;1.58;;;1.00;;
78648;SDS011;67962;47.310;9.642;2023-11-21T10:49:07;4.07;;;1.55;;
78648;SDS011;67962;47.310;9.642;2023-11-21T10:51:34;3.22;;;1.45;;
78648;SDS011;67962;47.310;9.642;2023-11-21T10:54:00;5.22;;;1.80;;
78648;SDS011;67962;47.310;9.642;2023-11-21T10:56:25;2.40;;;0.93;;
78648;SDS011;67962;47.310;9.642;2023-11-21T10:58:52;0.70;;;0.43;;
78648;SDS011;67962;47.310;9.642;2023-11-21T11:01:18;0.60;;;0.40;;
78648;SDS011;67962;47.310;9.642;2023-11-21T11:03:48;2.70;;;0.60;;
78648;SDS011;67962;47.310;9.642;2023-11-21T11:06:15;1.42;;;0.43;;
78648;SDS011;67962;47.310;9.642;2023-11-21T11:08:41;0.77;;;0.40;;
78648;SDS011;67962;47.310;9.642;2023-11-21T11:11:07;0.45;;;0.38;;
78648;SDS011;67962;47.310;9.642;2023-11-21T11:13:35;1.58;;;0.60;;
78648;SDS011;67962;47.310;9.642;2023-11-21T11:16:03;0.73;;;0.50;;
78648;SDS011;67962;47.310;9.642;2023-11-21T11:18:33;0.85;;;0.50;;
78648;SDS011;67962;47.310;9.642;2023-11-21T11:21:01;0.88;;;0.60;;
78648;SDS011;67962;47.310;9.642;2023-11-21T11:23:45;1.05;;;0.50;;
78648;SDS011;67962;47.310;9.642;2023-11-21T11:26:28;1.30;;;0.70;;
78648;SDS011;67962;47.310;9.642;2023-11-21T11:39:36;0.90;;;0.60;;
78648;SDS011;67962;47.310;9.642;2023-11-21T11:42:14;1.58;;;0.57;;
78648;SDS011;67962;47.310;9.642;2023-11-21T11:47:20;0.55;;;0.52;;
78648;SDS011;67962;47.310;9.642;2023-11-21T11:49:57;1.45;;;0.50;;
78648;SDS011;67962;47.310;9.642;2023-11-21T11:52:41;1.45;;;0.60;;
78648;SDS011;67962;47.310;9.642;2023-11-21T11:55:09;1.33;;;0.60;;
78648;SDS011;67962;47.310;9.642;2023-11-21T11:57:36;0.70;;;0.40;;
78648;SDS011;67962;47.310;9.642;2023-11-21T12:00:13;0.68;;;0.57;;
78648;SDS011;67962;47.310;9.642;2023-11-21T12:02:51;0.45;;;0.30;;
78648;SDS011;67962;47.310;9.642;2023-11-21T12:05:24;0.95;;;0.40;;
78648;SDS011;67962;47.310;9.642;2023-11-21T12:07:55;0.50;;;0.30;;
78648;SDS011;67962;47.310;9.642;2023-11-21T12:10:25;0.65;;;0.40;;
78648;SDS011;67962;47.310;9.642;2023-11-21T12:12:56;1.02;;;0.50;;
78648;SDS011;67962;47.310;9.642;2023-11-21T12:15:24;1.05;;;0.40;;
78648;SDS011;67962;47.310;9.642;2023-11-21T12:17:50;0.77;;;0.40;;
78648;SDS011;67962;47.310;9.642;2023-11-21T12:20:20;1.73;;;0.40;;
78648;SDS011;67962;47.310;9.642;2023-11-21T12:22:48;0.50;;;0.40;;
78648;SDS011;67962;47.310;9.642;2023-11-21T12:27:43;0.90;;;0.70;;
78648;SDS011;67962;47.310;9.642;2023-11-21T12:30:14;0.77;;;0.47;;
78648;SDS011;67962;47.310;9.642;2023-11-21T12:32:42;0.95;;;0.52;;
78648;SDS011;67962;47.310;9.642;2023-11-21T12:35:11;2.17;;;0.43;;
78648;SDS011;67962;47.310;9.642;2023-11-21T12:37:40;1.27;;;0.50;;
78648;SDS011;67962;47.310;9.642;2023-11-21T12:40:10;3.20;;;0.40;;
78648;SDS011;67962;47.310;9.642;2023-11-21T12:42:40;1.10;;;0.47;;
78648;SDS011;67962;47.310;9.642;2023-11-21T12:47:46;1.02;;;0.50;;
78648;SDS011;67962;47.310;9.642;2023-11-21T12:50:19;3.15;;;0.50;;
78648;SDS011;67962;47.310;9.642;2023-11-21T12:52:48;3.35;;;0.57;;
78648;SDS011;67962;47.310;9.642;2023-11-21T12:55:19;0.90;;;0.55;;
78648;SDS011;67962;47.310;9.642;2023-11-21T12:57:50;2.75;;;0.73;;
78648;SDS011;67962;47.310;9.642;2023-11-21T13:00:19;1.35;;;0.75;;
78648;SDS011;67962;47.310;9.642;2023-11-21T13:02:56;0.88;;;0.60;;
78648;SDS011;67962;47.310;9.642;2023-11-21T13:05:27;2.00;;;0.60;;
78648;SDS011;67962;47.310;9.642;2023-11-21T13:07:54;1.48;;;0.80;;
78648;SDS011;67962;47.310;9.642;2023-11-21T13:10:25;1.48;;;0.85;;
78648;SDS011;67962;47.310;9.642;2023-11-21T13:12:55;2.25;;;0.65;;
78648;SDS011;67962;47.310;9.642;2023-11-21T13:15:23;2.22;;;0.80;;
78648;SDS011;67962;47.310;9.642;2023-11-21T13:17:50;2.47;;;0.77;;
78648;SDS011;67962;47.310;9.642;2023-11-21T13:20:16;1.02;;;0.63;;
78648;SDS011;67962;47.310;9.642;2023-11-21T13:22:48;1.58;;;0.60;;
78648;SDS011;67962;47.310;9.642;2023-11-21T13:25:24;0.98;;;0.68;;
78648;SDS011;67962;47.310;9.642;2023-11-21T13:27:54;0.73;;;0.60;;
78648;SDS011;67962;47.310;9.642;2023-11-21T13:30:20;1.15;;;0.57;;
78648;SDS011;67962;47.310;9.642;2023-11-21T13:32:54;1.20;;;0.60;;
78648;SDS011;67962;47.310;9.642;2023-11-21T13:35:22;2.75;;;1.30;;
78648;SDS011;67962;47.310;9.642;2023-11-21T13:38:07;0.80;;;0.70;;
78648;SDS011;67962;47.310;9.642;2023-11-21T13:40:34;1.90;;;0.80;;
78648;SDS011;67962;47.310;9.642;2023-11-21T13:43:11;1.73;;;1.00;;
78648;SDS011;67962;47.310;9.642;2023-11-21T13:45:38;1.30;;;0.80;;
78648;SDS011;67962;47.310;9.642;2023-11-21T13:48:06;2.05;;;1.00;;
78648;SDS011;67962;47.310;9.642;2023-11-21T13:50:38;0.60;;;0.50;;
78648;SDS011;67962;47.310;9.642;2023-11-21T13:53:11;1.15;;;0.75;;
78648;SDS011;67962;47.310;9.642;2023-11-21T13:55:49;0.93;;;0.75;;
78648;SDS011;67962;47.310;9.642;2023-11-21T13:58:16;1.65;;;0.90;;
78648;SDS011;67962;47.310;9.642;2023-11-21T14:00:49;0.93;;;0.50;;
78648;SDS011;67962;47.310;9.642;2023-11-21T14:03:24;0.77;;;0.63;;
78648;SDS011;67962;47.310;9.642;2023-11-21T14:06:02;0.70;;;0.57;;
78648;SDS011;67962;47.310;9.642;2023-11-21T14:08:33;1.13;;;0.65;;
78648;SDS011;67962;47.310;9.642;2023-11-21T14:10:59;3.70;;;1.05;;
78648;SDS011;67962;47.310;9.642;2023-11-21T14:13:25;1.00;;;0.70;;
78648;SDS011;67962;47.310;9.642;2023-11-21T14:15:52;0.85;;;0.50;;
78648;SDS011;67962;47.310;9.642;2023-11-21T14:18:27;1.02;;;0.73;;
78648;SDS011;67962;47.310;9.642;2023-11-21T14:21:03;1.13;;;0.68;;
78648;SDS011;67962;47.310;9.642;2023-11-21T14:23:30;3.08;;;0.70;;
78648;SDS011;67962;47.310;9.642;2023-11-21T14:25:58;0.90;;;0.70;;
78648;SDS011;67962;47.310;9.642;2023-11-21T14:28:26;0.80;;;0.60;;
78648;SDS011;67962;47.310;9.642;2023-11-21T14:30:51;0.98;;;0.75;;
78648;SDS011;67962;47.310;9.642;2023-11-21T14:33:17;2.65;;;1.20;;
78648;SDS011;67962;47.310;9.642;2023-11-21T14:35:43;3.28;;;0.82;;
78648;SDS011;67962;47.310;9.642;2023-11-21T14:38:09;1.60;;;0.73;;
78648;SDS011;67962;47.310;9.642;2023-11-21T14:40:35;1.75;;;0.55;;
78648;SDS011;67962;47.310;9.642;2023-11-21T14:43:04;4.13;;;0.65;;
78648;SDS011;67962;47.310;9.642;2023-11-21T14:45:33;2.60;;;0.60;;
78648;SDS011;67962;47.310;9.642;2023-11-21T14:47:59;0.50;;;0.40;;
78648;SDS011;67962;47.310;9.642;2023-11-21T14:50:36;0.63;;;0.43;;
78648;SDS011;67962;47.310;9.642;2023-11-21T14:53:11;3.22;;;0.60;;
78648;SDS011;67962;47.310;9.642;2023-11-21T14:55:38;0.60;;;0.40;;
78648;SDS011;67962;47.310;9.642;2023-11-21T14:58:16;0.50;;;0.40;;
78648;SDS011;67962;47.310;9.642;2023-11-21T15:00:52;0.40;;;0.38;;
78648;SDS011;67962;47.310;9.642;2023-11-21T15:03:25;0.40;;;0.40;;
78648;SDS011;67962;47.310;9.642;2023-11-21T15:06:00;2.40;;;0.60;;
78648;SDS011;67962;47.310;9.642;2023-11-21T15:08:43;0.70;;;0.50;;